Time;durP1;ratioP1;P1;durP2;ratioP2;P2;SDS_P1;SDS_P2;PMS_P1;PMS_P2;Temp;Humidity;BMP_temperature;BMP_pressure;BME280_temperature;BME280_humidity;BME280_pressure;Samples;Min_cycle;Max_cycle;Signal;HPM_P1;HPM_P2
2023/06/25 00:04:34;;;;;;;24.30;21.70;;;;;;;14.92;81.23;100219.64;218209;1258;140324;-67
2023/06/25 00:09:39;;;;;;;21.10;18.80;;;;;;;14.91;81.00;100220.70;219317;1255;140639;-66
2023/06/25 00:14:43;;;;;;;19.60;15.80;;;;;;;14.90;81.32;100222.46;218851;1256;140263;-67
2023/06/25 00:19:46;;;;;;;16.10;14.60;;;;;;;14.87;81.04;100216.36;218810;1256;141306;-67
2023/06/25 00:24:50;;;;;;;14.40;11.00;;;;;;;14.78;80.86;100214.95;217573;1256;140677;-66
2023/06/25 00:29:55;;;;;;;14.60;12.10;;;;;;;14.71;80.83;100216.48;218566;1256;160255;-67
2023/06/25 00:35:01;;;;;;;12.20;11.00;;;;;;;14.64;80.89;100208.69;218164;1256;141022;-68
2023/06/25 00:40:08;;;;;;;12.30;10.80;;;;;;;14.58;80.82;100208.08;218468;1256;140220;-68
2023/06/25 00:45:13;;;;;;;11.70;9.60;;;;;;;14.49;81.03;100210.30;218254;1259;141970;-67
2023/06/25 00:50:21;;;;;;;11.50;9.40;;;;;;;14.42;81.06;100206.66;218421;1256;141029;-67
2023/06/25 00:55:26;;;;;;;11.60;9.50;;;;;;;14.37;81.18;100197.41;217924;1256;140724;-66
2023/06/25 01:00:33;;;;;;;12.20;8.80;;;;;;;14.31;81.13;100196.37;219093;1256;141234;-66
2023/06/25 01:05:50;;;;;;;10.70;9.00;;;;;;;14.22;80.94;100196.02;218620;1257;141098;-68
2023/06/25 01:11:14;;;;;;;12.40;9.10;;;;;;;14.11;80.94;100198.60;219149;1258;140199;-68
2023/06/25 01:16:19;;;;;;;12.70;8.60;;;;;;;14.02;80.87;100193.95;218877;1256;140657;-67
2023/06/25 01:21:26;;;;;;;10.30;9.00;;;;;;;13.96;80.84;100192.50;219133;1257;141250;-67
2023/06/25 01:26:31;;;;;;;11.50;9.50;;;;;;;13.91;80.92;100189.08;218936;1257;142142;-67
2023/06/25 01:31:35;;;;;;;11.60;8.80;;;;;;;13.86;80.86;100186.60;220586;1255;140519;-66
2023/06/25 01:36:40;;;;;;;10.70;8.90;;;;;;;13.82;81.16;100189.91;220665;1255;141433;-67
2023/06/25 01:41:46;;;;;;;9.80;8.30;;;;;;;13.79;81.21;100183.39;220530;1256;140686;-68
2023/06/25 01:46:50;;;;;;;11.60;8.00;;;;;;;13.80;81.28;100186.02;219913;1259;141337;-67
2023/06/25 01:51:54;;;;;;;9.00;8.10;;;;;;;13.78;81.27;100182.46;219762;1256;140988;-67
2023/06/25 01:56:59;;;;;;;12.50;8.10;;;;;;;13.77;81.28;100184.48;220063;1257;140082;-68
2023/06/25 02:02:04;;;;;;;;;;;;;;;13.71;80.97;100179.91;218012;1256;140020;-69
2023/06/25 02:07:09;;;;;;;10.80;8.10;;;;;;;13.60;81.16;100178.60;218035;1256;127336;-70
2023/06/25 02:12:15;;;;;;;9.50;7.70;;;;;;;13.56;80.95;100179.23;218174;1258;140504;-68
2023/06/25 02:17:20;;;;;;;9.70;7.70;;;;;;;13.51;81.28;100172.92;217608;1257;139947;-70
2023/06/25 02:22:24;;;;;;;10.20;8.80;;;;;;;13.43;81.18;100168.80;217764;1255;139944;-67
2023/06/25 02:27:28;;;;;;;8.00;7.20;;;;;;;13.36;81.23;100165.88;218155;1257;140699;-67
2023/06/25 02:32:33;;;;;;;8.70;7.80;;;;;;;13.32;81.60;100163.66;219321;1256;140876;-67
2023/06/25 02:37:38;;;;;;;11.70;8.40;;;;;;;13.27;81.38;100159.24;217871;1255;140429;-66
2023/06/25 02:42:43;;;;;;;9.80;8.30;;;;;;;13.14;81.23;100164.05;219508;1257;141853;-68
2023/06/25 02:47:49;;;;;;;27.40;8.30;;;;;;;13.11;81.47;100172.48;219035;1257;141134;-66
2023/06/25 02:52:54;;;;;;;10.90;8.10;;;;;;;13.10;81.75;100175.26;218787;1256;143618;-66
2023/06/25 02:57:59;;;;;;;9.90;7.70;;;;;;;13.16;82.16;100176.23;219142;1257;140496;-66
2023/06/25 03:03:03;;;;;;;7.90;7.10;;;;;;;13.23;82.40;100174.33;217780;1257;143629;-68
2023/06/25 03:08:08;;;;;;;11.00;8.40;;;;;;;13.28;82.35;100173.67;218275;1257;140399;-69
2023/06/25 03:13:13;;;;;;;9.00;8.20;;;;;;;13.30;82.67;100168.02;219922;1257;140572;-68
2023/06/25 03:18:18;;;;;;;8.30;7.50;;;;;;;13.35;82.51;100163.30;220165;1256;140153;-68
2023/06/25 03:23:22;;;;;;;11.00;7.30;;;;;;;13.39;82.29;100166.10;219559;1257;140073;-67
2023/06/25 03:28:26;;;;;;;9.20;7.90;;;;;;;13.41;82.19;100165.92;220557;1257;139751;-68
2023/06/25 03:33:30;;;;;;;12.90;7.20;;;;;;;13.46;82.14;100163.37;220564;1256;140849;-66
2023/06/25 03:38:33;;;;;;;9.50;7.70;;;;;;;13.57;82.10;100164.45;220758;1257;141108;-67
2023/06/25 03:43:38;;;;;;;15.10;6.50;;;;;;;13.72;82.28;100161.11;219520;1257;141716;-66
2023/06/25 03:48:42;;;;;;;11.00;8.50;;;;;;;14.06;82.27;100168.67;219643;1257;140814;-68
2023/06/25 03:53:47;;;;;;;22.10;9.30;;;;;;;14.27;82.17;100168.98;219600;1257;140841;-69
2023/06/25 03:58:52;;;;;;;9.40;7.70;;;;;;;14.46;82.00;100170.45;218819;1259;140798;-68
2023/06/25 04:03:56;;;;;;;10.10;8.70;;;;;;;14.79;81.83;100175.09;218063;1259;140641;-66
2023/06/25 04:09:01;;;;;;;15.30;7.80;;;;;;;14.92;81.92;100172.55;218765;1257;140283;-66
2023/06/25 04:14:06;;;;;;;10.30;9.20;;;;;;;15.00;81.72;100176.28;218067;1257;140007;-70
2023/06/25 04:19:11;;;;;;;12.00;9.80;;;;;;;15.10;81.74;100176.77;218637;1257;140721;-70
2023/06/25 04:24:15;;;;;;;10.90;8.20;;;;;;;15.31;81.65;100174.12;218384;1257;140936;-65
2023/06/25 04:29:19;;;;;;;8.90;8.00;;;;;;;15.73;81.42;100174.54;218811;1256;140339;-66
2023/06/25 04:34:24;;;;;;;10.20;7.80;;;;;;;16.05;81.15;100174.59;218448;1256;140184;-66
2023/06/25 04:39:30;;;;;;;9.50;7.60;;;;;;;17.48;79.28;100175.61;218627;1257;140289;-66
2023/06/25 04:44:34;;;;;;;12.40;7.50;;;;;;;19.47;77.13;100180.28;218641;1257;207182;-67
2023/06/25 04:49:39;;;;;;;8.10;7.40;;;;;;;20.75;75.13;100179.39;218481;1258;140032;-67
2023/06/25 04:54:44;;;;;;;10.30;9.20;;;;;;;21.79;73.00;100178.25;219256;1259;140064;-66
2023/06/25 04:59:48;;;;;;;10.50;8.60;;;;;;;21.59;72.09;100185.92;219523;1259;140023;-65
2023/06/25 05:04:54;;;;;;;17.50;8.80;;;;;;;21.60;70.69;100190.08;218544;1257;140361;-67
2023/06/25 05:10:00;;;;;;;9.20;7.80;;;;;;;22.20;69.54;100190.73;219588;1256;221375;-66
2023/06/25 05:15:07;;;;;;;9.00;7.30;;;;;;;24.31;66.76;100195.55;218535;1257;140029;-65
2023/06/25 05:20:12;;;;;;;8.50;7.20;;;;;;;27.74;62.51;100195.73;220016;1257;140611;-67
2023/06/25 05:25:17;;;;;;;10.90;7.70;;;;;;;30.61;58.62;100198.35;220366;1257;139269;-69
2023/06/25 05:30:22;;;;;;;7.30;5.70;;;;;;;32.87;54.75;100205.20;220472;1257;139546;-67
2023/06/25 05:35:28;;;;;;;;;;;;;;;34.75;51.43;100203.78;220722;1255;140150;-67
2023/06/25 05:40:33;;;;;;;7.50;4.50;;;;;;;36.31;48.06;100204.63;220893;1259;125955;-67
2023/06/25 05:45:39;;;;;;;5.40;3.70;;;;;;;37.58;44.90;100206.52;219734;1257;139204;-66
2023/06/25 05:50:44;;;;;;;4.80;4.40;;;;;;;38.55;42.22;100201.27;218458;1259;140162;-67
2023/06/25 05:55:50;;;;;;;3.60;3.30;;;;;;;39.49;39.84;100189.73;218088;1259;139501;-67
2023/06/25 06:00:54;;;;;;;6.50;4.10;;;;;;;40.32;37.65;100190.07;219488;1259;140847;-67
2023/06/25 06:06:00;;;;;;;4.70;3.30;;;;;;;41.05;35.94;100185.98;219029;1257;139151;-67
2023/06/25 06:11:05;;;;;;;4.60;3.20;;;;;;;41.62;34.81;100184.83;217916;1259;139665;-67
2023/06/25 06:16:11;;;;;;;6.10;3.40;;;;;;;42.14;33.62;100186.07;218447;1258;139320;-67
2023/06/25 06:22:03;;;;;;;3.10;2.80;;;;;;;42.64;32.49;100185.23;218933;1259;140382;-67
2023/06/25 06:27:08;;;;;;;4.60;3.80;;;;;;;42.57;31.42;100181.65;217551;1260;140051;-68
2023/06/25 06:32:13;;;;;;;4.70;3.40;;;;;;;42.54;30.69;100178.29;219313;1257;139033;-66
2023/06/25 06:37:18;;;;;;;3.90;3.60;;;;;;;42.42;29.79;100178.40;217358;1258;139304;-68
2023/06/25 06:42:26;;;;;;;3.10;2.90;;;;;;;42.35;29.50;100181.13;217466;1257;139982;-68
2023/06/25 06:47:40;;;;;;;3.60;3.30;;;;;;;42.12;28.93;100182.20;217668;1260;139463;-68
2023/06/25 06:52:45;;;;;;;5.40;3.30;;;;;;;41.91;29.09;100186.55;217653;1258;138769;-68
2023/06/25 06:57:51;;;;;;;5.00;4.20;;;;;;;41.68;28.81;100186.85;218280;1254;139389;-66
2023/06/25 07:02:57;;;;;;;3.40;3.10;;;;;;;41.33;28.53;100185.55;218078;1257;139298;-67
2023/06/25 07:08:02;;;;;;;4.10;3.00;;;;;;;41.26;28.74;100176.11;219217;1257;139810;-67
2023/06/25 07:13:08;;;;;;;3.80;3.50;;;;;;;41.06;28.26;100171.33;218566;1260;140472;-68
2023/06/25 07:18:18;;;;;;;4.00;3.40;;;;;;;40.73;28.49;100170.73;218923;1255;140053;-68
2023/06/25 07:23:24;;;;;;;3.70;3.10;;;;;;;40.35;28.22;100170.70;220607;1256;139304;-69
2023/06/25 07:28:30;;;;;;;6.30;3.10;;;;;;;39.76;28.54;100169.59;220587;1258;138889;-67
2023/06/25 07:33:34;;;;;;;3.70;3.00;;;;;;;38.82;29.02;100170.18;220413;1256;139470;-67
2023/06/25 07:38:42;;;;;;;4.70;4.00;;;;;;;37.85;29.92;100170.09;220436;1257;139282;-67
2023/06/25 07:43:49;;;;;;;4.50;4.10;;;;;;;36.60;30.57;100170.65;220050;1258;139564;-67
2023/06/25 07:49:29;;;;;;;6.60;4.20;;;;;;;35.82;31.78;100164.64;219634;1256;139540;-68
2023/06/25 07:54:39;;;;;;;4.40;3.70;;;;;;;35.13;32.30;100158.05;217926;1257;139745;-67
2023/06/25 07:59:48;;;;;;;5.90;4.80;;;;;;;34.78;33.29;100152.25;218911;1257;139203;-66
2023/06/25 08:04:56;;;;;;;4.00;3.50;;;;;;;34.33;33.84;100144.77;219087;1257;140819;-65
2023/06/25 08:10:01;;;;;;;6.40;4.90;;;;;;;33.90;33.89;100140.86;218595;1259;161429;-67
2023/06/25 08:15:05;;;;;;;5.30;4.90;;;;;;;33.37;34.17;100140.55;217908;1254;139152;-67
2023/06/25 08:20:10;;;;;;;6.50;4.90;;;;;;;32.93;34.43;100138.52;219047;1254;140522;-65
2023/06/25 08:25:25;;;;;;;5.40;4.60;;;;;;;32.58;35.02;100131.80;218444;1255;139997;-66
2023/06/25 08:30:29;;;;;;;4.80;4.40;;;;;;;32.38;36.02;100127.83;218084;1257;140065;-67
2023/06/25 08:35:34;;;;;;;5.90;4.90;;;;;;;32.14;36.32;100126.01;218109;1260;140673;-67
2023/06/25 08:40:41;;;;;;;7.10;4.90;;;;;;;32.05;36.78;100128.55;218285;1254;139091;-66
2023/06/25 08:45:46;;;;;;;5.20;4.10;;;;;;;31.91;36.89;100123.42;217841;1260;139888;-66
2023/06/25 08:50:58;;;;;;;6.80;4.30;;;;;;;31.86;37.13;100124.44;218580;1257;139037;-67
2023/06/25 08:56:05;;;;;;;6.20;4.60;;;;;;;31.50;36.96;100123.23;218623;1254;140359;-66
2023/06/25 09:01:10;;;;;;;8.30;4.50;;;;;;;31.55;37.40;100116.23;218895;1257;140754;-66
2023/06/25 09:06:15;;;;;;;6.70;4.60;;;;;;;31.48;36.56;100114.39;219897;1257;142391;-67
2023/06/25 09:11:21;;;;;;;5.70;5.00;;;;;;;31.34;37.32;100113.56;219283;1254;140993;-66
2023/06/25 09:16:26;;;;;;;4.90;4.50;;;;;;;31.53;37.53;100110.38;220718;1254;139625;-65
2023/06/25 09:21:38;;;;;;;7.80;5.40;;;;;;;31.45;37.28;100113.07;220621;1254;139653;-69
2023/06/25 09:26:51;;;;;;;10.00;4.80;;;;;;;30.46;36.98;100111.39;220553;1254;139695;-67
2023/06/25 09:31:55;;;;;;;6.30;4.20;;;;;;;29.59;37.48;100105.41;220537;1258;140409;-67
2023/06/25 09:37:01;;;;;;;7.70;5.10;;;;;;;29.27;38.71;100100.61;220659;1256;139266;-67
2023/06/25 09:42:09;;;;;;;5.00;4.60;;;;;;;29.59;39.34;100099.46;219455;1254;139907;-69
2023/06/25 09:47:16;;;;;;;8.10;4.80;;;;;;;29.39;38.96;100097.86;219109;1254;139550;-67
2023/06/25 09:52:25;;;;;;;5.70;4.30;;;;;;;29.18;38.69;100094.33;218526;1257;139491;-67
2023/06/25 09:57:29;;;;;;;5.00;4.50;;;;;;;29.66;39.41;100095.70;218991;1254;140592;-67
2023/06/25 10:02:33;;;;;;;7.20;5.20;;;;;;;29.88;39.68;100096.41;218861;1257;139195;-67
2023/06/25 10:07:40;;;;;;;5.70;4.50;;;;;;;30.01;39.40;100093.67;220039;1254;140133;-68
2023/06/25 10:12:44;;;;;;;5.50;5.00;;;;;;;30.16;39.11;100094.68;219699;1257;141094;-68
2023/06/25 10:21:25;;;;;;;8.30;5.40;;;;;;;29.90;38.02;100084.52;214345;1300;636966;-68
2023/06/25 10:26:50;;;;;;;4.20;3.80;;;;;;;29.04;37.85;100088.85;216855;1271;139394;-68
2023/06/25 10:32:01;;;;;;;5.10;4.60;;;;;;;29.08;38.44;100091.29;215689;1267;826230;-68
2023/06/25 10:37:12;;;;;;;4.60;4.20;;;;;;;29.32;39.00;100081.54;216951;1268;139042;-66
2023/06/25 10:42:17;;;;;;;4.50;4.10;;;;;;;29.61;38.00;100077.30;216494;1268;138373;-66
2023/06/25 10:47:22;;;;;;;4.30;3.90;;;;;;;29.70;37.30;100068.48;216091;1267;139110;-64
2023/06/25 10:52:28;;;;;;;4.90;4.00;;;;;;;29.65;36.74;100068.61;216845;1268;138773;-69
2023/06/25 10:57:33;;;;;;;4.20;3.80;;;;;;;29.52;36.82;100064.35;216520;1267;138880;-65
2023/06/25 11:02:37;;;;;;;3.10;2.80;;;;;;;29.53;36.63;100066.33;217382;1268;139338;-68
2023/06/25 11:07:41;;;;;;;3.00;2.80;;;;;;;29.34;35.86;100066.29;216678;1269;138652;-67
2023/06/25 11:12:46;;;;;;;2.70;2.50;;;;;;;29.32;35.99;100059.27;216340;1269;138761;-67
2023/06/25 11:17:54;;;;;;;3.20;2.90;;;;;;;29.36;35.26;100050.00;219068;1267;138857;-64
2023/06/25 11:23:01;;;;;;;5.00;3.30;;;;;;;29.41;34.38;100043.02;219294;1257;141072;-65
2023/06/25 11:28:11;;;;;;;3.20;2.50;;;;;;;29.14;34.23;100040.50;218492;1259;236424;-65
2023/06/25 11:33:19;;;;;;;3.70;3.40;;;;;;;28.47;34.74;100046.41;218715;1259;138688;-66
2023/06/25 11:38:27;;;;;;;3.20;2.90;;;;;;;28.41;35.44;100038.95;219960;1257;138740;-66
2023/06/25 11:43:35;;;;;;;4.80;2.90;;;;;;;28.83;35.24;100025.36;219422;1257;139081;-67
2023/06/25 11:48:52;;;;;;;3.40;3.10;;;;;;;29.04;35.52;100022.04;217713;1257;140077;-69
2023/06/25 11:53:57;;;;;;;4.20;3.10;;;;;;;28.74;35.47;100019.45;218240;1259;138656;-66
2023/06/25 11:59:04;;;;;;;2.80;2.50;;;;;;;28.89;35.54;100012.91;217119;1262;138852;-65
2023/06/25 12:04:15;;;;;;;3.10;2.90;;;;;;;29.09;34.93;100012.45;217735;1258;138924;-67
2023/06/25 12:09:27;;;;;;;4.10;3.20;;;;;;;28.82;35.14;100002.84;217878;1258;138731;-63
2023/06/25 12:14:35;;;;;;;4.20;2.90;;;;;;;28.19;34.95;100005.22;217242;1259;141102;-64
2023/06/25 12:19:42;;;;;;;3.80;3.20;;;;;;;27.79;34.58;100002.05;217465;1257;138975;-64
2023/06/25 12:24:46;;;;;;;22.70;4.00;;;;;;;28.00;35.46;99997.75;218017;1258;140312;-66
2023/06/25 12:29:50;;;;;;;4.20;2.70;;;;;;;28.27;35.35;99983.63;217478;1257;139622;-69
2023/06/25 12:34:54;;;;;;;3.40;3.20;;;;;;;28.37;34.87;99983.31;218327;1257;138801;-68
2023/06/25 12:39:59;;;;;;;4.00;2.60;;;;;;;28.26;35.09;99978.48;217452;1262;138570;-66
2023/06/25 12:45:04;;;;;;;3.20;2.80;;;;;;;28.23;35.27;99975.11;217724;1260;138450;-67
2023/06/25 12:50:12;;;;;;;2.50;2.30;;;;;;;27.89;35.28;99976.42;218350;1256;139669;-68
2023/06/25 12:55:22;;;;;;;3.30;2.30;;;;;;;27.99;35.10;99968.20;217944;1259;140659;-66
2023/06/25 13:00:27;;;;;;;39.20;5.60;;;;;;;28.06;34.61;99958.70;218831;1255;140055;-66
2023/06/25 13:05:53;;;;;;;6.40;3.20;;;;;;;27.96;34.90;99963.89;219637;1254;138865;-67
2023/06/25 13:10:57;;;;;;;6.40;2.80;;;;;;;27.60;35.34;99959.05;219003;1255;140801;-66
2023/06/25 13:16:03;;;;;;;4.20;3.00;;;;;;;27.67;35.49;99963.92;220410;1255;141096;-64
2023/06/25 13:21:11;;;;;;;2.80;2.50;;;;;;;27.57;35.53;99962.80;220564;1254;140841;-65
2023/06/25 13:26:17;;;;;;;3.00;2.50;;;;;;;27.47;35.67;99954.67;219964;1255;139726;-65
2023/06/25 13:31:22;;;;;;;2.80;2.50;;;;;;;27.56;36.01;99950.33;220484;1255;138954;-68
2023/06/25 13:36:29;;;;;;;2.70;2.50;;;;;;;27.54;36.30;99950.33;219230;1254;140470;-68
2023/06/25 13:41:34;;;;;;;3.50;3.20;;;;;;;27.66;36.32;99941.90;219473;1255;140827;-69
2023/06/25 13:46:38;;;;;;;2.90;2.50;;;;;;;27.95;35.86;99935.20;218620;1254;138934;-66
2023/06/25 13:51:47;;;;;;;3.70;3.40;;;;;;;28.13;35.41;99926.88;219051;1258;140519;-68
2023/06/25 13:56:53;;;;;;;6.30;3.00;;;;;;;28.14;35.06;99930.58;218838;1255;138814;-68
2023/06/25 14:01:59;;;;;;;3.50;2.90;;;;;;;27.80;35.34;99939.52;218645;1255;139054;-71
2023/06/25 14:07:04;;;;;;;5.00;3.80;;;;;;;27.79;35.87;99935.20;217901;1257;139457;-65
2023/06/25 14:12:09;;;;;;;4.30;3.30;;;;;;;27.88;35.35;99925.98;217739;1254;138674;-65
2023/06/25 14:17:14;;;;;;;2.90;2.70;;;;;;;27.53;35.53;99927.16;218139;1256;138511;-65
2023/06/25 14:22:18;;;;;;;3.10;2.80;;;;;;;27.29;35.34;99926.20;218601;1259;138608;-65
2023/06/25 14:27:24;;;;;;;4.10;3.40;;;;;;;27.39;35.68;99918.57;218609;1255;138818;-66
2023/06/25 14:32:28;;;;;;;3.80;3.20;;;;;;;27.28;36.05;99922.91;217888;1257;138639;-66
2023/06/25 14:37:33;;;;;;;4.40;3.60;;;;;;;26.99;36.47;99918.66;217663;1257;138907;-66
2023/06/25 14:42:38;;;;;;;3.40;3.10;;;;;;;26.77;36.98;99917.48;218278;1257;138819;-66
2023/06/25 14:47:42;;;;;;;3.50;3.20;;;;;;;26.68;37.60;99916.61;217871;1255;138874;-66
2023/06/25 14:52:52;;;;;;;3.30;3.10;;;;;;;26.72;37.68;99909.17;218477;1257;138700;-66
2023/06/25 14:57:57;;;;;;;4.90;2.60;;;;;;;26.85;37.48;99908.78;217879;1258;138641;-66
2023/06/25 15:03:01;;;;;;;3.20;2.80;;;;;;;26.94;37.78;99906.14;218371;1256;139149;-66
2023/06/25 15:08:06;;;;;;;4.20;3.60;;;;;;;27.26;37.46;99897.19;218939;1254;138460;-69
2023/06/25 15:13:12;;;;;;;3.40;2.90;;;;;;;27.43;37.09;99895.30;220417;1255;158859;-69
2023/06/25 15:18:16;;;;;;;3.70;3.20;;;;;;;27.54;36.86;99899.34;219246;1255;138686;-68
2023/06/25 15:23:20;;;;;;;3.40;3.10;;;;;;;27.57;36.64;99892.98;219954;1256;139213;-67
2023/06/25 15:28:25;;;;;;;3.10;2.80;;;;;;;27.60;36.59;99888.20;219327;1255;138881;-66
2023/06/25 15:33:30;;;;;;;5.10;3.60;;;;;;;27.65;36.64;99883.34;218262;1257;139240;-66
2023/06/25 15:38:39;;;;;;;3.40;3.10;;;;;;;27.64;36.42;99874.70;217949;1258;140914;-66
2023/06/25 15:43:49;;;;;;;4.40;3.50;;;;;;;27.48;36.07;99872.86;219212;1256;139730;-66
2023/06/25 15:48:56;;;;;;;5.20;2.80;;;;;;;27.40;36.21;99868.09;218172;1254;138619;-67
2023/06/25 15:54:01;;;;;;;3.10;2.60;;;;;;;27.30;36.01;99863.77;219163;1256;139374;-67
2023/06/25 15:59:23;;;;;;;3.20;2.90;;;;;;;27.04;35.79;99862.64;217739;1258;138528;-66
2023/06/25 16:04:26;;;;;;;3.20;3.00;;;;;;;26.91;36.15;99860.54;218002;1256;149953;-67
2023/06/25 16:09:30;;;;;;;5.10;3.00;;;;;;;26.74;36.12;99856.90;218375;1256;138568;-66
2023/06/25 16:14:34;;;;;;;3.20;2.90;;;;;;;26.56;36.53;99855.21;217805;1254;138914;-66
2023/06/25 16:19:39;;;;;;;3.50;3.20;;;;;;;26.32;36.82;99851.01;218307;1256;139942;-67
2023/06/25 16:25:08;;;;;;;4.30;3.20;;;;;;;25.99;36.70;99850.04;217660;1257;138603;-65
2023/06/25 16:30:12;;;;;;;3.00;2.80;;;;;;;25.70;37.12;99852.29;218438;1254;141276;-65
2023/06/25 16:35:15;;;;;;;3.70;2.90;;;;;;;25.48;37.25;99848.86;218078;1257;139555;-65
2023/06/25 16:40:19;;;;;;;3.80;2.90;;;;;;;25.35;37.90;99847.63;217706;1257;140110;-66
2023/06/25 16:45:23;;;;;;;4.60;4.10;;;;;;;25.20;39.44;99849.34;218074;1257;138715;-65
2023/06/25 16:50:27;;;;;;;6.20;3.00;;;;;;;25.07;39.91;99850.34;217973;1257;138729;-67
2023/06/25 16:55:31;;;;;;;5.10;3.20;;;;;;;24.94;40.83;99849.96;220365;1254;138767;-67
2023/06/25 17:00:35;;;;;;;9.40;3.00;;;;;;;24.84;41.34;99853.02;220415;1255;139181;-69
2023/06/25 17:05:38;;;;;;;5.70;3.90;;;;;;;24.76;41.40;99850.06;220200;1255;138849;-67
2023/06/25 17:10:44;;;;;;;4.40;2.90;;;;;;;24.75;41.81;99851.90;219685;1256;140191;-70
2023/06/25 17:15:51;;;;;;;3.50;3.20;;;;;;;24.75;42.36;99851.13;220500;1255;138425;-70
2023/06/25 17:20:56;;;;;;;3.10;2.90;;;;;;;24.74;42.75;99853.43;219704;1256;139523;-70
2023/06/25 17:26:00;;;;;;;5.00;3.20;;;;;;;24.75;43.27;99851.38;218288;1256;139776;-69
2023/06/25 17:31:05;;;;;;;3.10;2.80;;;;;;;24.75;43.80;99853.08;219660;1256;139565;-68
2023/06/25 17:36:09;;;;;;;6.00;3.20;;;;;;;24.73;44.74;99852.90;218297;1258;139250;-68
2023/06/25 17:41:13;;;;;;;7.50;3.80;;;;;;;24.68;44.73;99851.98;218784;1256;138459;-70
2023/06/25 17:46:17;;;;;;;4.20;3.80;;;;;;;24.60;45.23;99847.60;218445;1256;138454;-70
2023/06/25 17:51:21;;;;;;;3.50;3.20;;;;;;;24.48;45.21;99846.40;217860;1258;139431;-72
2023/06/25 17:56:26;;;;;;;2.90;2.70;;;;;;;24.36;44.88;99846.29;217700;1254;138779;-73
2023/06/25 18:01:30;;;;;;;;;;;;;;;24.23;45.22;99843.73;217617;1256;138865;-72
2023/06/25 18:06:33;;;;;;;;;;;;;;;24.11;45.62;99843.28;218115;1258;126085;-66
2023/06/25 18:11:37;;;;;;;;;;;;;;;23.98;46.05;99844.48;219197;1256;222231;-68
2023/06/25 18:16:40;;;;;;;;;;;;;;;23.83;46.70;99842.80;218176;1260;125249;-66
2023/06/25 18:21:44;;;;;;;;;;;;;;;23.64;47.50;99844.48;218043;1256;126308;-67
2023/06/25 18:26:48;;;;;;;;;;;;;;;23.43;48.12;99841.16;218344;1255;125201;-67
2023/06/25 18:31:52;;;;;;;;;;;;;;;23.21;48.41;99841.37;218077;1256;127859;-67
2023/06/25 18:36:56;;;;;;;;;;;;;;;23.00;48.94;99844.69;218393;1255;125293;-66
2023/06/25 18:41:59;;;;;;;;;;;;;;;22.79;49.34;99850.64;220320;1257;125849;-69
2023/06/25 18:47:05;;;;;;;;;;;;;;;22.57;49.67;99851.52;218016;1258;126028;-68
2023/06/25 18:52:09;;;;;;;;;;;;;;;22.34;50.27;99848.73;219223;1258;126268;-67
2023/06/25 18:57:17;;;;;;;;;;;;;;;22.13;50.70;99848.75;220786;1256;125642;-66
2023/06/25 19:02:28;;;;;;;;;;;;;;;21.92;51.27;99847.45;220719;1256;126489;-67
2023/06/25 19:07:35;;;;;;;;;;;;;;;21.69;51.61;99851.98;219869;1257;125571;-71
2023/06/25 19:12:40;;;;;;;;;;;;;;;21.45;51.95;99853.20;220565;1256;126267;-69
2023/06/25 19:17:43;;;;;;;;;;;;;;;21.21;52.61;99855.31;220393;1257;125134;-70
2023/06/25 19:22:47;;;;;;;;;;;;;;;21.02;53.37;99860.55;218150;1256;125766;-70
2023/06/25 19:28:11;;;;;;;;;;;;;;;20.86;54.24;99867.73;218754;1259;125612;-65
2023/06/25 19:33:15;;;;;;;;;;;;;;;20.70;55.02;99863.77;218429;1259;126055;-67
2023/06/25 19:38:19;;;;;;;;;;;;;;;20.50;55.52;99865.34;218590;1259;125155;-65
2023/06/25 19:43:23;;;;;;;;;;;;;;;20.29;55.57;99865.89;218907;1257;125454;-69
2023/06/25 19:48:28;;;;;;;;;;;;;;;20.10;56.12;99867.65;218303;1258;125309;-67
2023/06/25 19:53:36;;;;;;;;;;;;;;;19.88;56.73;99868.19;218022;1259;125817;-65
2023/06/25 19:58:40;;;;;;;;;;;;;;;19.48;57.12;99867.92;217986;1259;125126;-65
2023/06/25 20:03:44;;;;;;;;;;;;;;;19.11;57.75;99871.27;217703;1260;125254;-66
2023/06/25 20:08:48;;;;;;;;;;;;;;;18.89;58.21;99871.35;218779;1257;126034;-65
2023/06/25 20:13:55;;;;;;;;;;;;;;;18.64;58.67;99871.59;218478;1259;125091;-65
2023/06/25 20:18:59;;;;;;;;;;;;;;;18.45;58.84;99871.67;219325;1255;125694;-65
2023/06/25 20:24:03;;;;;;;;;;;;;;;18.30;59.35;99867.94;219808;1257;125289;-66
2023/06/25 20:29:07;;;;;;;;;;;;;;;18.16;59.27;99869.59;219088;1256;125631;-64
2023/06/25 20:34:12;;;;;;;;;;;;;;;18.01;59.74;99870.73;218403;1256;125166;-68
2023/06/25 20:39:21;;;;;;;;;;;;;;;17.87;59.96;99871.89;220044;1256;125107;-65
2023/06/25 20:44:32;;;;;;;;;;;;;;;17.73;60.29;99874.02;218810;1256;125672;-64
2023/06/25 20:49:37;;;;;;;;;;;;;;;17.53;60.47;99874.90;220884;1256;126244;-67
2023/06/25 20:54:41;;;;;;;;;;;;;;;17.35;60.75;99879.05;219741;1256;125230;-66
2023/06/25 20:59:45;;;;;;;;;;;;;;;17.14;61.05;99877.97;219836;1257;125943;-64
2023/06/25 21:04:49;;;;;;;;;;;;;;;16.93;61.60;99870.55;220748;1258;125631;-67
2023/06/25 21:09:54;;;;;;;;;;;;;;;16.73;62.10;99871.83;220015;1258;127172;-66
2023/06/25 21:14:59;;;;;;;;;;;;;;;16.54;62.33;99877.48;219603;1256;126347;-67
2023/06/25 21:20:08;;;;;;;;;;;;;;;16.38;62.67;99878.07;218672;1255;126374;-67
2023/06/25 21:25:13;;;;;;;;;;;;;;;16.25;62.89;99881.98;219324;1257;125200;-67
2023/06/25 21:30:18;;;;;;;;;;;;;;;16.08;63.04;99880.36;219494;1256;125472;-67
2023/06/25 21:35:22;;;;;;;;;;;;;;;15.92;63.25;99880.61;217998;1256;126475;-67
2023/06/25 21:40:26;;;;;;;;;;;;;;;15.80;63.68;99881.45;218148;1257;126084;-67
2023/06/25 21:45:31;;;;;;;;;;;;;;;15.66;63.90;99878.34;218867;1256;125349;-67
2023/06/25 21:50:36;;;;;;;;;;;;;;;15.56;64.42;99883.69;218223;1256;125356;-67
2023/06/25 21:55:40;;;;;;;;;;;;;;;15.46;64.71;99882.11;218524;1256;125168;-67
2023/06/25 22:00:44;;;;;;;;;;;;;;;15.33;65.01;99882.70;219019;1258;125499;-67
2023/06/25 22:05:48;;;;;;;;;;;;;;;15.16;65.22;99878.34;218656;1256;125488;-68
2023/06/25 22:10:52;;;;;;;;;;;;;;;15.03;65.66;99876.65;220085;1256;125269;-68
2023/06/25 22:15:57;;;;;;;;;;;;;;;14.96;66.09;99883.55;219110;1256;125960;-68
2023/06/25 22:21:04;;;;;;;;;;;;;;;14.93;66.47;99879.94;219788;1256;126017;-68
2023/06/25 22:26:09;;;;;;;;;;;;;;;14.83;66.60;99877.55;219390;1256;127539;-68
2023/06/25 22:31:14;;;;;;;;;;;;;;;14.71;66.86;99876.30;218962;1258;125684;-67
2023/06/25 22:36:19;;;;;;;;;;;;;;;14.62;67.30;99876.14;220667;1256;126021;-67
2023/06/25 22:41:24;;;;;;;;;;;;;;;14.54;67.56;99872.59;220477;1255;137626;-67
2023/06/25 22:46:29;;;;;;;;;;;;;;;14.46;67.82;99870.05;220668;1259;126225;-67
2023/06/25 22:51:34;;;;;;;;;;;;;;;14.37;67.82;99869.36;220762;1254;126114;-70
2023/06/25 22:56:38;;;;;;;;;;;;;;;14.30;68.25;99867.39;220879;1256;126953;-69
2023/06/25 23:01:41;;;;;;;;;;;;;;;14.23;68.63;99871.23;219046;1255;126793;-68
2023/06/25 23:06:47;;;;;;;;;;;;;;;14.22;68.79;99872.35;219925;1257;126438;-67
2023/06/25 23:11:52;;;;;;;;;;;;;;;14.12;69.23;99865.13;218170;1258;126122;-68
2023/06/25 23:16:57;;;;;;;;;;;;;;;14.03;69.22;99864.48;219678;1258;126652;-67
2023/06/25 23:22:04;;;;;;;;;;;;;;;13.95;69.72;99863.74;218309;1257;126027;-67
2023/06/25 23:27:08;;;;;;;;;;;;;;;13.89;69.96;99861.21;219819;1256;126396;-67
2023/06/25 23:32:14;;;;;;;;;;;;;;;13.82;70.27;99864.20;219725;1256;127136;-65
2023/06/25 23:37:20;;;;;;;;;;;;;;;13.77;70.23;99862.70;218851;1258;127101;-67
2023/06/25 23:42:25;;;;;;;;;;;;;;;13.70;70.62;99859.22;219420;1254;126721;-66
2023/06/25 23:47:31;;;;;;;;;;;;;;;13.63;70.67;99852.60;218937;1256;126487;-68
2023/06/25 23:52:36;;;;;;;;;;;;;;;13.53;70.70;99849.84;219456;1257;126455;-70
2023/06/25 23:57:40;;;;;;;;;;;;;;;13.40;71.07;99850.10;219135;1256;125794;-68
